sensor_id;sensor_type;location;lat;lon;timestamp;pressure;altitude;pressure_sealevel;temperature;humidity
59116;BME280;53564;51.930;4.640;2022-11-06T00:02:17;101464.88;;;11.57;72.72
59116;BME280;53564;51.930;4.640;2022-11-06T00:04:42;101455.44;;;11.83;72.95
59116;BME280;53564;51.930;4.640;2022-11-06T00:07:07;101452.56;;;11.92;72.29
59116;BME280;53564;51.930;4.640;2022-11-06T00:09:33;101470.19;;;11.98;71.99
59116;BME280;53564;51.930;4.640;2022-11-06T00:11:58;101453.03;;;11.72;73.30
59116;BME280;53564;51.930;4.640;2022-11-06T00:14:23;101451.31;;;11.70;73.18
59116;BME280;53564;51.930;4.640;2022-11-06T00:16:49;101444.88;;;11.80;73.36
59116;BME280;53564;51.930;4.640;2022-11-06T00:19:14;101442.66;;;11.61;72.97
59116;BME280;53564;51.930;4.640;2022-11-06T00:21:40;101445.47;;;11.93;72.36
59116;BME280;53564;51.930;4.640;2022-11-06T00:24:07;101445.47;;;12.30;71.51
59116;BME280;53564;51.930;4.640;2022-11-06T00:26:34;101433.44;;;12.14;71.92
59116;BME280;53564;51.930;4.640;2022-11-06T00:29:00;101445.03;;;11.74;72.55
59116;BME280;53564;51.930;4.640;2022-11-06T00:31:31;101437.41;;;11.97;72.75
59116;BME280;53564;51.930;4.640;2022-11-06T00:33:58;101426.28;;;11.80;73.07
59116;BME280;53564;51.930;4.640;2022-11-06T00:36:25;101427.56;;;12.01;72.72
59116;BME280;53564;51.930;4.640;2022-11-06T00:38:52;101432.19;;;11.91;73.12
59116;BME280;53564;51.930;4.640;2022-11-06T00:41:18;101434.81;;;11.57;73.02
59116;BME280;53564;51.930;4.640;2022-11-06T00:43:48;101438.25;;;11.99;72.72
59116;BME280;53564;51.930;4.640;2022-11-06T00:46:13;101435.69;;;11.93;72.91
59116;BME280;53564;51.930;4.640;2022-11-06T00:48:40;101437.19;;;12.07;72.88
59116;BME280;53564;51.930;4.640;2022-11-06T00:51:14;101440.22;;;11.90;72.89
59116;BME280;53564;51.930;4.640;2022-11-06T00:53:40;101446.38;;;12.29;71.66
59116;BME280;53564;51.930;4.640;2022-11-06T00:56:17;101438.31;;;11.96;73.06
59116;BME280;53564;51.930;4.640;2022-11-06T00:58:44;101449.44;;;11.75;73.09
59116;BME280;53564;51.930;4.640;2022-11-06T01:01:27;101439.00;;;12.05;72.45
59116;BME280;53564;51.930;4.640;2022-11-06T01:03:58;101434.66;;;11.63;73.02
59116;BME280;53564;51.930;4.640;2022-11-06T01:06:26;101420.34;;;11.69;73.43
59116;BME280;53564;51.930;4.640;2022-11-06T01:08:53;101431.53;;;11.83;73.26
59116;BME280;53564;51.930;4.640;2022-11-06T01:11:23;101436.66;;;11.53;73.78
59116;BME280;53564;51.930;4.640;2022-11-06T01:13:52;101434.38;;;11.75;73.60
59116;BME280;53564;51.930;4.640;2022-11-06T01:16:18;101438.88;;;11.72;73.41
59116;BME280;53564;51.930;4.640;2022-11-06T01:18:44;101423.25;;;11.95;73.13
59116;BME280;53564;51.930;4.640;2022-11-06T01:21:16;101434.06;;;11.88;73.08
59116;BME280;53564;51.930;4.640;2022-11-06T01:23:42;101423.72;;;11.77;74.19
59116;BME280;53564;51.930;4.640;2022-11-06T01:26:09;101433.53;;;11.73;73.58
59116;BME280;53564;51.930;4.640;2022-11-06T01:28:35;101411.19;;;11.82;73.64
59116;BME280;53564;51.930;4.640;2022-11-06T01:31:12;101410.19;;;11.86;73.08
59116;BME280;53564;51.930;4.640;2022-11-06T01:33:38;101408.78;;;11.71;73.52
59116;BME280;53564;51.930;4.640;2022-11-06T01:36:04;101409.81;;;12.03;72.63
59116;BME280;53564;51.930;4.640;2022-11-06T01:38:32;101403.97;;;11.87;73.75
59116;BME280;53564;51.930;4.640;2022-11-06T01:40:57;101405.44;;;12.01;72.90
59116;BME280;53564;51.930;4.640;2022-11-06T01:43:51;101407.53;;;11.86;74.10
59116;BME280;53564;51.930;4.640;2022-11-06T01:46:19;101402.31;;;11.83;73.36
59116;BME280;53564;51.930;4.640;2022-11-06T01:48:50;101408.44;;;11.85;73.61
59116;BME280;53564;51.930;4.640;2022-11-06T01:51:17;101412.50;;;12.02;72.96
59116;BME280;53564;51.930;4.640;2022-11-06T01:53:43;101401.03;;;11.99;72.65
59116;BME280;53564;51.930;4.640;2022-11-06T01:56:10;101400.72;;;12.12;72.19
59116;BME280;53564;51.930;4.640;2022-11-06T01:58:39;101400.34;;;11.90;72.77
59116;BME280;53564;51.930;4.640;2022-11-06T02:01:06;101407.16;;;11.65;73.35
59116;BME280;53564;51.930;4.640;2022-11-06T02:03:31;101396.56;;;12.02;74.20
59116;BME280;53564;51.930;4.640;2022-11-06T02:05:58;101396.22;;;12.14;73.58
59116;BME280;53564;51.930;4.640;2022-11-06T02:08:24;101391.53;;;11.88;74.43
59116;BME280;53564;51.930;4.640;2022-11-06T02:10:50;101389.59;;;11.96;73.65
59116;BME280;53564;51.930;4.640;2022-11-06T02:16:33;101393.25;;;11.90;73.39
59116;BME280;53564;51.930;4.640;2022-11-06T02:19:20;101387.38;;;11.77;74.37
59116;BME280;53564;51.930;4.640;2022-11-06T02:22:27;101384.81;;;11.73;73.62
59116;BME280;53564;51.930;4.640;2022-11-06T02:25:12;101378.06;;;12.31;72.75
59116;BME280;53564;51.930;4.640;2022-11-06T02:27:41;101375.41;;;11.95;73.15
59116;BME280;53564;51.930;4.640;2022-11-06T02:30:10;101379.13;;;11.88;73.70
59116;BME280;53564;51.930;4.640;2022-11-06T02:32:44;101383.94;;;12.10;72.77
59116;BME280;53564;51.930;4.640;2022-11-06T02:35:18;101376.84;;;11.74;73.29
59116;BME280;53564;51.930;4.640;2022-11-06T02:37:45;101379.03;;;12.27;72.86
59116;BME280;53564;51.930;4.640;2022-11-06T02:40:12;101390.38;;;11.63;73.28
59116;BME280;53564;51.930;4.640;2022-11-06T02:42:42;101379.94;;;11.92;74.04
59116;BME280;53564;51.930;4.640;2022-11-06T02:45:11;101376.00;;;12.08;73.49
59116;BME280;53564;51.930;4.640;2022-11-06T02:47:39;101367.34;;;12.00;72.57
59116;BME280;53564;51.930;4.640;2022-11-06T02:50:12;101369.19;;;11.96;73.67
59116;BME280;53564;51.930;4.640;2022-11-06T02:52:40;101364.09;;;12.23;72.67
59116;BME280;53564;51.930;4.640;2022-11-06T02:55:28;101371.69;;;12.03;73.64
59116;BME280;53564;51.930;4.640;2022-11-06T02:57:59;101366.66;;;11.90;73.77
59116;BME280;53564;51.930;4.640;2022-11-06T03:00:25;101348.72;;;12.02;73.74
59116;BME280;53564;51.930;4.640;2022-11-06T03:02:55;101348.56;;;12.08;73.69
59116;BME280;53564;51.930;4.640;2022-11-06T03:05:30;101367.59;;;12.25;72.84
59116;BME280;53564;51.930;4.640;2022-11-06T03:08:19;101363.66;;;12.39;72.75
59116;BME280;53564;51.930;4.640;2022-11-06T03:16:42;101343.88;;;12.16;72.57
59116;BME280;53564;51.930;4.640;2022-11-06T03:19:31;101332.50;;;12.11;72.88
59116;BME280;53564;51.930;4.640;2022-11-06T03:22:27;101321.69;;;11.84;73.30
59116;BME280;53564;51.930;4.640;2022-11-06T03:28:06;101318.22;;;12.15;73.60
59116;BME280;53564;51.930;4.640;2022-11-06T03:30:35;101328.56;;;11.91;73.83
59116;BME280;53564;51.930;4.640;2022-11-06T03:33:13;101316.56;;;12.11;73.52
59116;BME280;53564;51.930;4.640;2022-11-06T03:35:56;101308.84;;;12.02;73.47
59116;BME280;53564;51.930;4.640;2022-11-06T03:38:46;101304.50;;;11.97;74.59
59116;BME280;53564;51.930;4.640;2022-11-06T03:41:21;101316.69;;;12.39;74.15
59116;BME280;53564;51.930;4.640;2022-11-06T03:43:48;101307.25;;;12.27;73.69
59116;BME280;53564;51.930;4.640;2022-11-06T03:46:17;101299.53;;;12.18;74.10
59116;BME280;53564;51.930;4.640;2022-11-06T03:48:51;101317.88;;;12.27;73.29
59116;BME280;53564;51.930;4.640;2022-11-06T03:51:21;101299.94;;;12.36;72.58
59116;BME280;53564;51.930;4.640;2022-11-06T03:54:00;101303.38;;;12.39;71.54
59116;BME280;53564;51.930;4.640;2022-11-06T03:56:35;101311.25;;;12.11;73.80
59116;BME280;53564;51.930;4.640;2022-11-06T03:59:04;101310.97;;;12.53;71.27
59116;BME280;53564;51.930;4.640;2022-11-06T04:01:33;101298.06;;;12.39;73.12
59116;BME280;53564;51.930;4.640;2022-11-06T04:04:04;101285.63;;;12.40;72.22
59116;BME280;53564;51.930;4.640;2022-11-06T04:06:36;101286.47;;;12.42;73.23
59116;BME280;53564;51.930;4.640;2022-11-06T04:09:06;101285.50;;;12.13;72.55
59116;BME280;53564;51.930;4.640;2022-11-06T04:11:52;101285.41;;;12.16;72.08
59116;BME280;53564;51.930;4.640;2022-11-06T04:14:41;101272.44;;;12.37;72.69
59116;BME280;53564;51.930;4.640;2022-11-06T04:17:11;101283.81;;;12.09;72.87
59116;BME280;53564;51.930;4.640;2022-11-06T04:19:39;101269.28;;;11.89;73.37
59116;BME280;53564;51.930;4.640;2022-11-06T04:28:31;101271.03;;;12.23;73.21
59116;BME280;53564;51.930;4.640;2022-11-06T04:33:36;101255.94;;;12.24;72.36
59116;BME280;53564;51.930;4.640;2022-11-06T04:36:26;101255.41;;;12.11;73.84
59116;BME280;53564;51.930;4.640;2022-11-06T04:39:03;101250.59;;;12.25;72.40
59116;BME280;53564;51.930;4.640;2022-11-06T04:46:52;101255.47;;;12.41;72.33
59116;BME280;53564;51.930;4.640;2022-11-06T04:49:21;101248.22;;;12.46;71.59
59116;BME280;53564;51.930;4.640;2022-11-06T04:51:48;101244.38;;;12.25;72.45
59116;BME280;53564;51.930;4.640;2022-11-06T04:54:13;101237.56;;;12.46;71.98
59116;BME280;53564;51.930;4.640;2022-11-06T04:56:39;101243.69;;;12.18;73.63
59116;BME280;53564;51.930;4.640;2022-11-06T04:59:05;101239.22;;;12.50;72.39
59116;BME280;53564;51.930;4.640;2022-11-06T05:01:31;101240.03;;;12.22;72.54
59116;BME280;53564;51.930;4.640;2022-11-06T05:03:56;101239.31;;;12.47;72.01
59116;BME280;53564;51.930;4.640;2022-11-06T05:06:22;101213.94;;;12.35;72.37
59116;BME280;53564;51.930;4.640;2022-11-06T05:08:48;101237.66;;;12.43;73.52
59116;BME280;53564;51.930;4.640;2022-11-06T05:11:13;101229.16;;;12.31;73.26
59116;BME280;53564;51.930;4.640;2022-11-06T05:13:38;101229.66;;;12.13;73.18
59116;BME280;53564;51.930;4.640;2022-11-06T05:16:04;101227.41;;;12.30;73.25
59116;BME280;53564;51.930;4.640;2022-11-06T05:18:29;101214.22;;;12.26;72.31
59116;BME280;53564;51.930;4.640;2022-11-06T05:20:58;101223.03;;;12.58;72.60
59116;BME280;53564;51.930;4.640;2022-11-06T05:23:42;101222.63;;;12.42;73.10
59116;BME280;53564;51.930;4.640;2022-11-06T05:26:07;101229.88;;;12.67;72.46
59116;BME280;53564;51.930;4.640;2022-11-06T05:28:33;101216.88;;;12.56;72.16
59116;BME280;53564;51.930;4.640;2022-11-06T05:30:58;101218.22;;;12.41;73.25
59116;BME280;53564;51.930;4.640;2022-11-06T05:33:24;101214.53;;;12.45;73.03
59116;BME280;53564;51.930;4.640;2022-11-06T05:35:50;101209.69;;;12.29;73.69
59116;BME280;53564;51.930;4.640;2022-11-06T05:38:15;101198.31;;;12.54;73.67
59116;BME280;53564;51.930;4.640;2022-11-06T05:40:41;101200.97;;;12.24;74.08
59116;BME280;53564;51.930;4.640;2022-11-06T05:43:06;101208.03;;;12.25;73.06
59116;BME280;53564;51.930;4.640;2022-11-06T05:45:31;101183.00;;;12.32;73.63
59116;BME280;53564;51.930;4.640;2022-11-06T05:47:57;101181.81;;;12.13;73.01
59116;BME280;53564;51.930;4.640;2022-11-06T05:50:22;101190.41;;;12.21;74.30
59116;BME280;53564;51.930;4.640;2022-11-06T05:52:48;101188.41;;;12.29;73.14
59116;BME280;53564;51.930;4.640;2022-11-06T05:55:13;101173.00;;;12.41;72.81
59116;BME280;53564;51.930;4.640;2022-11-06T05:57:38;101174.03;;;12.05;73.55
59116;BME280;53564;51.930;4.640;2022-11-06T06:00:05;101179.16;;;12.13;75.39
59116;BME280;53564;51.930;4.640;2022-11-06T06:02:30;101181.16;;;12.05;74.72
59116;BME280;53564;51.930;4.640;2022-11-06T06:04:56;101177.41;;;12.12;74.64
59116;BME280;53564;51.930;4.640;2022-11-06T06:07:21;101164.13;;;12.12;73.34
59116;BME280;53564;51.930;4.640;2022-11-06T06:09:46;101167.34;;;12.23;74.03
59116;BME280;53564;51.930;4.640;2022-11-06T06:12:12;101167.19;;;12.28;73.44
59116;BME280;53564;51.930;4.640;2022-11-06T06:14:38;101169.50;;;12.09;73.64
59116;BME280;53564;51.930;4.640;2022-11-06T06:17:03;101163.09;;;12.46;73.60
59116;BME280;53564;51.930;4.640;2022-11-06T06:19:28;101172.69;;;12.22;74.30
59116;BME280;53564;51.930;4.640;2022-11-06T06:21:53;101178.44;;;12.08;75.13
59116;BME280;53564;51.930;4.640;2022-11-06T06:24:19;101169.06;;;12.24;73.87
59116;BME280;53564;51.930;4.640;2022-11-06T06:26:44;101174.34;;;11.94;74.27
59116;BME280;53564;51.930;4.640;2022-11-06T06:29:09;101176.03;;;12.28;73.80
59116;BME280;53564;51.930;4.640;2022-11-06T06:31:34;101171.72;;;12.54;73.32
59116;BME280;53564;51.930;4.640;2022-11-06T06:34:00;101173.03;;;12.68;71.75
59116;BME280;53564;51.930;4.640;2022-11-06T06:36:25;101167.72;;;12.68;73.18
59116;BME280;53564;51.930;4.640;2022-11-06T06:38:50;101161.41;;;12.13;73.10
59116;BME280;53564;51.930;4.640;2022-11-06T06:41:16;101151.75;;;12.11;73.18
59116;BME280;53564;51.930;4.640;2022-11-06T06:43:41;101144.97;;;12.01;73.31
59116;BME280;53564;51.930;4.640;2022-11-06T06:46:07;101145.50;;;12.70;73.04
59116;BME280;53564;51.930;4.640;2022-11-06T06:48:33;101134.16;;;12.35;72.82
59116;BME280;53564;51.930;4.640;2022-11-06T06:50:59;101145.13;;;12.54;72.74
59116;BME280;53564;51.930;4.640;2022-11-06T06:53:25;101133.50;;;12.28;72.67
59116;BME280;53564;51.930;4.640;2022-11-06T06:55:51;101141.22;;;12.64;71.22
59116;BME280;53564;51.930;4.640;2022-11-06T06:58:16;101136.59;;;12.43;72.59
59116;BME280;53564;51.930;4.640;2022-11-06T07:00:41;101144.22;;;12.25;72.78
59116;BME280;53564;51.930;4.640;2022-11-06T07:03:07;101125.97;;;12.43;72.23
59116;BME280;53564;51.930;4.640;2022-11-06T07:05:32;101125.28;;;12.36;72.33
59116;BME280;53564;51.930;4.640;2022-11-06T07:07:57;101130.66;;;12.35;73.07
59116;BME280;53564;51.930;4.640;2022-11-06T07:10:23;101134.47;;;12.54;72.20
59116;BME280;53564;51.930;4.640;2022-11-06T07:12:48;101127.97;;;12.35;72.07
59116;BME280;53564;51.930;4.640;2022-11-06T07:15:14;101131.19;;;12.46;72.25
59116;BME280;53564;51.930;4.640;2022-11-06T07:17:39;101132.81;;;12.50;71.95
59116;BME280;53564;51.930;4.640;2022-11-06T07:20:05;101128.47;;;12.47;71.64
59116;BME280;53564;51.930;4.640;2022-11-06T07:22:31;101133.09;;;12.41;72.52
59116;BME280;53564;51.930;4.640;2022-11-06T07:24:56;101123.59;;;12.62;72.13
59116;BME280;53564;51.930;4.640;2022-11-06T07:27:21;101134.16;;;12.35;72.61
59116;BME280;53564;51.930;4.640;2022-11-06T07:29:47;101134.66;;;12.48;72.12
59116;BME280;53564;51.930;4.640;2022-11-06T07:32:12;101138.06;;;12.53;72.28
59116;BME280;53564;51.930;4.640;2022-11-06T07:34:37;101129.53;;;12.42;72.73
59116;BME280;53564;51.930;4.640;2022-11-06T07:37:06;101130.59;;;12.64;71.70
59116;BME280;53564;51.930;4.640;2022-11-06T07:39:31;101128.75;;;12.67;72.09
59116;BME280;53564;51.930;4.640;2022-11-06T07:41:57;101125.34;;;12.61;72.05
59116;BME280;53564;51.930;4.640;2022-11-06T07:44:22;101115.56;;;12.90;71.25
59116;BME280;53564;51.930;4.640;2022-11-06T07:46:47;101113.78;;;12.62;72.00
59116;BME280;53564;51.930;4.640;2022-11-06T07:49:13;101112.16;;;12.58;71.22
59116;BME280;53564;51.930;4.640;2022-11-06T07:51:40;101114.50;;;12.68;72.00
59116;BME280;53564;51.930;4.640;2022-11-06T07:54:05;101114.75;;;12.60;72.17
59116;BME280;53564;51.930;4.640;2022-11-06T07:56:30;101118.22;;;12.90;71.64
59116;BME280;53564;51.930;4.640;2022-11-06T07:58:56;101108.25;;;12.70;71.93
59116;BME280;53564;51.930;4.640;2022-11-06T08:01:22;101105.94;;;12.59;71.74
59116;BME280;53564;51.930;4.640;2022-11-06T08:03:47;101104.25;;;12.84;71.50
59116;BME280;53564;51.930;4.640;2022-11-06T08:06:12;101107.06;;;12.79;71.25
59116;BME280;53564;51.930;4.640;2022-11-06T08:08:38;101106.75;;;12.88;71.02
59116;BME280;53564;51.930;4.640;2022-11-06T08:11:04;101108.94;;;13.27;70.30
59116;BME280;53564;51.930;4.640;2022-11-06T08:13:30;101102.13;;;13.20;69.86
59116;BME280;53564;51.930;4.640;2022-11-06T08:15:58;101108.47;;;13.16;71.17
59116;BME280;53564;51.930;4.640;2022-11-06T08:18:23;101112.44;;;13.29;70.35
59116;BME280;53564;51.930;4.640;2022-11-06T08:20:51;101103.31;;;13.37;70.41
59116;BME280;53564;51.930;4.640;2022-11-06T08:23:16;101104.81;;;12.93;70.97
59116;BME280;53564;51.930;4.640;2022-11-06T08:25:42;101098.56;;;12.94;71.43
59116;BME280;53564;51.930;4.640;2022-11-06T08:28:07;101102.75;;;13.27;71.02
59116;BME280;53564;51.930;4.640;2022-11-06T08:30:33;101102.84;;;13.24;70.82
59116;BME280;53564;51.930;4.640;2022-11-06T08:33:03;101104.44;;;13.29;70.14
59116;BME280;53564;51.930;4.640;2022-11-06T08:35:30;101104.91;;;12.90;72.09
59116;BME280;53564;51.930;4.640;2022-11-06T08:37:55;101094.06;;;12.96;71.28
59116;BME280;53564;51.930;4.640;2022-11-06T08:40:21;101091.69;;;13.14;71.48
59116;BME280;53564;51.930;4.640;2022-11-06T08:42:46;101093.72;;;13.06;71.84
59116;BME280;53564;51.930;4.640;2022-11-06T08:45:12;101085.09;;;13.24;72.33
59116;BME280;53564;51.930;4.640;2022-11-06T08:47:37;101069.28;;;13.20;70.71
59116;BME280;53564;51.930;4.640;2022-11-06T08:50:02;101062.28;;;13.17;71.63
59116;BME280;53564;51.930;4.640;2022-11-06T08:52:28;101068.69;;;13.37;72.26
59116;BME280;53564;51.930;4.640;2022-11-06T08:54:53;101049.19;;;13.11;71.33
59116;BME280;53564;51.930;4.640;2022-11-06T08:57:18;101055.28;;;13.40;70.38
59116;BME280;53564;51.930;4.640;2022-11-06T08:59:44;101048.34;;;13.59;71.34
59116;BME280;53564;51.930;4.640;2022-11-06T09:02:13;101054.53;;;13.35;71.78
59116;BME280;53564;51.930;4.640;2022-11-06T09:04:39;101060.38;;;12.95;71.96
59116;BME280;53564;51.930;4.640;2022-11-06T09:07:04;101066.78;;;13.15;72.28
59116;BME280;53564;51.930;4.640;2022-11-06T09:09:30;101050.03;;;12.86;72.71
59116;BME280;53564;51.930;4.640;2022-11-06T09:11:58;101038.38;;;13.41;70.70
59116;BME280;53564;51.930;4.640;2022-11-06T09:14:24;101046.56;;;13.35;70.83
59116;BME280;53564;51.930;4.640;2022-11-06T09:16:50;101026.56;;;12.98;71.51
59116;BME280;53564;51.930;4.640;2022-11-06T09:19:15;101035.03;;;13.09;71.79
59116;BME280;53564;51.930;4.640;2022-11-06T09:21:40;101030.38;;;13.41;70.78
59116;BME280;53564;51.930;4.640;2022-11-06T09:24:05;101027.19;;;13.06;71.15
59116;BME280;53564;51.930;4.640;2022-11-06T09:26:31;101036.16;;;13.76;69.38
59116;BME280;53564;51.930;4.640;2022-11-06T09:28:56;101027.44;;;13.23;70.79
59116;BME280;53564;51.930;4.640;2022-11-06T09:31:21;101032.47;;;13.31;71.37
59116;BME280;53564;51.930;4.640;2022-11-06T09:33:47;101019.78;;;13.39;70.37
59116;BME280;53564;51.930;4.640;2022-11-06T09:36:12;101018.31;;;13.31;70.55
59116;BME280;53564;51.930;4.640;2022-11-06T09:38:37;101024.50;;;13.31;71.15
59116;BME280;53564;51.930;4.640;2022-11-06T09:41:03;101030.31;;;13.42;71.06
59116;BME280;53564;51.930;4.640;2022-11-06T09:46:05;101025.19;;;13.62;70.53
59116;BME280;53564;51.930;4.640;2022-11-06T09:48:41;101012.75;;;13.37;70.90
59116;BME280;53564;51.930;4.640;2022-11-06T09:51:32;101011.88;;;13.62;70.70
59116;BME280;53564;51.930;4.640;2022-11-06T09:54:11;101011.97;;;13.58;70.72
59116;BME280;53564;51.930;4.640;2022-11-06T09:56:40;101005.22;;;13.96;70.16
59116;BME280;53564;51.930;4.640;2022-11-06T09:59:10;100996.84;;;13.83;69.49
59116;BME280;53564;51.930;4.640;2022-11-06T10:01:44;100991.31;;;13.65;70.57
59116;BME280;53564;51.930;4.640;2022-11-06T10:04:24;100989.00;;;13.31;71.73
59116;BME280;53564;51.930;4.640;2022-11-06T10:06:52;101001.84;;;13.90;70.27
59116;BME280;53564;51.930;4.640;2022-11-06T10:09:17;100988.63;;;13.87;69.85
59116;BME280;53564;51.930;4.640;2022-11-06T10:11:51;101000.78;;;13.49;70.50
59116;BME280;53564;51.930;4.640;2022-11-06T10:20:02;100980.81;;;14.05;69.41
59116;BME280;53564;51.930;4.640;2022-11-06T10:22:38;100985.88;;;13.90;69.23
59116;BME280;53564;51.930;4.640;2022-11-06T10:25:17;100980.25;;;14.19;69.27
59116;BME280;53564;51.930;4.640;2022-11-06T10:30:18;100974.56;;;14.06;69.67
59116;BME280;53564;51.930;4.640;2022-11-06T10:36:10;100964.88;;;13.81;70.09
59116;BME280;53564;51.930;4.640;2022-11-06T10:38:42;100959.06;;;13.71;69.65
59116;BME280;53564;51.930;4.640;2022-11-06T10:41:20;100960.47;;;14.24;69.17
59116;BME280;53564;51.930;4.640;2022-11-06T10:43:51;100948.47;;;13.70;69.63
59116;BME280;53564;51.930;4.640;2022-11-06T10:48:52;100944.63;;;14.42;68.20
59116;BME280;53564;51.930;4.640;2022-11-06T10:51:55;100940.59;;;13.67;70.03
59116;BME280;53564;51.930;4.640;2022-11-06T10:57:38;100942.06;;;14.18;69.61
59116;BME280;53564;51.930;4.640;2022-11-06T11:00:12;100936.38;;;14.48;67.97
59116;BME280;53564;51.930;4.640;2022-11-06T11:02:44;100944.56;;;13.56;70.32
59116;BME280;53564;51.930;4.640;2022-11-06T11:05:16;100937.13;;;14.09;69.63
59116;BME280;53564;51.930;4.640;2022-11-06T11:07:44;100937.13;;;13.65;70.99
59116;BME280;53564;51.930;4.640;2022-11-06T11:12:51;100932.72;;;14.08;69.58
59116;BME280;53564;51.930;4.640;2022-11-06T11:15:21;100917.47;;;14.12;70.02
59116;BME280;53564;51.930;4.640;2022-11-06T11:18:07;100927.91;;;14.16;69.64
59116;BME280;53564;51.930;4.640;2022-11-06T11:20:35;100929.91;;;14.11;69.17
59116;BME280;53564;51.930;4.640;2022-11-06T11:25:45;100927.41;;;13.40;71.06
59116;BME280;53564;51.930;4.640;2022-11-06T11:30:49;100908.75;;;13.86;70.36
59116;BME280;53564;51.930;4.640;2022-11-06T11:33:18;100907.16;;;14.02;69.76
59116;BME280;53564;51.930;4.640;2022-11-06T11:35:47;100905.50;;;14.00;69.57
59116;BME280;53564;51.930;4.640;2022-11-06T11:38:14;100894.91;;;13.76;71.14
59116;BME280;53564;51.930;4.640;2022-11-06T11:40:40;100888.56;;;14.01;69.73
59116;BME280;53564;51.930;4.640;2022-11-06T11:45:43;100868.66;;;14.09;68.87
59116;BME280;53564;51.930;4.640;2022-11-06T11:48:12;100868.44;;;13.93;69.36
59116;BME280;53564;51.930;4.640;2022-11-06T11:50:38;100876.75;;;13.64;70.22
59116;BME280;53564;51.930;4.640;2022-11-06T11:53:10;100861.03;;;13.57;71.67
59116;BME280;53564;51.930;4.640;2022-11-06T11:55:48;100850.03;;;13.87;70.25
59116;BME280;53564;51.930;4.640;2022-11-06T11:58:21;100851.31;;;13.56;71.00
59116;BME280;53564;51.930;4.640;2022-11-06T12:00:53;100843.50;;;13.95;70.15
59116;BME280;53564;51.930;4.640;2022-11-06T12:03:21;100830.28;;;13.26;71.76
59116;BME280;53564;51.930;4.640;2022-11-06T12:05:50;100832.75;;;13.31;71.73
59116;BME280;53564;51.930;4.640;2022-11-06T12:08:23;100820.03;;;13.62;71.47
59116;BME280;53564;51.930;4.640;2022-11-06T12:10:49;100818.78;;;13.48;71.85
59116;BME280;53564;51.930;4.640;2022-11-06T12:13:17;100815.22;;;13.70;70.84
59116;BME280;53564;51.930;4.640;2022-11-06T12:15:55;100803.97;;;13.63;71.02
59116;BME280;53564;51.930;4.640;2022-11-06T12:18:26;100802.03;;;13.67;70.78
59116;BME280;53564;51.930;4.640;2022-11-06T12:23:28;100801.78;;;13.73;70.88
59116;BME280;53564;51.930;4.640;2022-11-06T12:26:04;100804.78;;;13.86;69.97
59116;BME280;53564;51.930;4.640;2022-11-06T12:28:34;100806.97;;;13.76;70.52
59116;BME280;53564;51.930;4.640;2022-11-06T12:31:33;100799.00;;;13.97;70.09
59116;BME280;53564;51.930;4.640;2022-11-06T12:33:55;100797.31;;;13.51;71.64
59116;BME280;53564;51.930;4.640;2022-11-06T12:36:25;100799.84;;;13.32;71.54
59116;BME280;53564;51.930;4.640;2022-11-06T12:39:03;100799.25;;;13.25;72.79
59116;BME280;53564;51.930;4.640;2022-11-06T12:41:33;100794.00;;;13.46;72.09
59116;BME280;53564;51.930;4.640;2022-11-06T12:44:00;100794.34;;;13.37;72.01
59116;BME280;53564;51.930;4.640;2022-11-06T12:52:44;100793.69;;;13.32;72.18
59116;BME280;53564;51.930;4.640;2022-11-06T12:55:26;100793.47;;;13.38;71.94
59116;BME280;53564;51.930;4.640;2022-11-06T12:58:16;100795.63;;;13.50;71.84
59116;BME280;53564;51.930;4.640;2022-11-06T13:03:22;100786.16;;;13.43;71.79
59116;BME280;53564;51.930;4.640;2022-11-06T13:11:26;100788.47;;;13.28;72.08
59116;BME280;53564;51.930;4.640;2022-11-06T13:14:15;100784.94;;;13.06;72.84
59116;BME280;53564;51.930;4.640;2022-11-06T13:22:06;100779.19;;;12.71;74.22
59116;BME280;53564;51.930;4.640;2022-11-06T13:24:41;100773.25;;;12.86;74.20
59116;BME280;53564;51.930;4.640;2022-11-06T13:30:15;100764.72;;;13.00;73.43
59116;BME280;53564;51.930;4.640;2022-11-06T13:32:45;100775.03;;;13.09;73.36
59116;BME280;53564;51.930;4.640;2022-11-06T13:35:14;100768.59;;;12.93;73.12
59116;BME280;53564;51.930;4.640;2022-11-06T13:37:45;100778.34;;;12.92;73.88
59116;BME280;53564;51.930;4.640;2022-11-06T13:40:32;100768.06;;;13.27;72.82
59116;BME280;53564;51.930;4.640;2022-11-06T13:43:21;100763.00;;;13.21;73.34
59116;BME280;53564;51.930;4.640;2022-11-06T13:46:08;100759.69;;;12.94;73.46
59116;BME280;53564;51.930;4.640;2022-11-06T13:51:31;100748.56;;;13.05;73.67
59116;BME280;53564;51.930;4.640;2022-11-06T14:00:16;100746.06;;;13.02;73.28
59116;BME280;53564;51.930;4.640;2022-11-06T14:03:21;100744.34;;;12.77;73.80
59116;BME280;53564;51.930;4.640;2022-11-06T14:06:34;100739.34;;;13.13;73.33
59116;BME280;53564;51.930;4.640;2022-11-06T14:08:49;100748.53;;;12.84;73.90
59116;BME280;53564;51.930;4.640;2022-11-06T14:11:25;100728.19;;;12.59;74.64
59116;BME280;53564;51.930;4.640;2022-11-06T14:14:00;100734.91;;;13.14;73.55
59116;BME280;53564;51.930;4.640;2022-11-06T14:19:21;100726.34;;;12.84;74.23
59116;BME280;53564;51.930;4.640;2022-11-06T14:21:51;100712.09;;;12.39;75.37
59116;BME280;53564;51.930;4.640;2022-11-06T14:27:01;100706.22;;;12.54;75.23
59116;BME280;53564;51.930;4.640;2022-11-06T14:34:29;100689.34;;;12.55;75.07
59116;BME280;53564;51.930;4.640;2022-11-06T14:36:56;100685.63;;;12.59;74.70
59116;BME280;53564;51.930;4.640;2022-11-06T14:40:01;100684.75;;;12.81;74.17
59116;BME280;53564;51.930;4.640;2022-11-06T14:42:30;100681.66;;;12.70;73.71
59116;BME280;53564;51.930;4.640;2022-11-06T14:45:19;100678.69;;;12.55;74.59
59116;BME280;53564;51.930;4.640;2022-11-06T14:52:59;100643.31;;;12.53;74.36